sensor_id;sensor_type;location;lat;lon;timestamp;pressure;altitude;pressure_sealevel;temperature;humidity
77227;BME280;66234;47.642;19.144;2023-08-17T00:02:31;100561.31;;;21.11;100.00
77227;BME280;66234;47.642;19.144;2023-08-17T00:05:34;100561.56;;;21.15;100.00
77227;BME280;66234;47.642;19.144;2023-08-17T00:08:37;100559.69;;;21.15;100.00
77227;BME280;66234;47.642;19.144;2023-08-17T00:11:39;100568.66;;;21.16;100.00
77227;BME280;66234;47.642;19.144;2023-08-17T00:14:42;100552.88;;;21.08;100.00
77227;BME280;66234;47.642;19.144;2023-08-17T00:17:44;100558.59;;;21.06;100.00
77227;BME280;66234;47.642;19.144;2023-08-17T00:20:47;100565.91;;;21.06;100.00
77227;BME280;66234;47.642;19.144;2023-08-17T00:23:50;100556.41;;;21.03;100.00
77227;BME280;66234;47.642;19.144;2023-08-17T00:26:52;100557.72;;;21.01;100.00
77227;BME280;66234;47.642;19.144;2023-08-17T00:29:55;100549.31;;;21.02;100.00
77227;BME280;66234;47.642;19.144;2023-08-17T00:33:00;100540.91;;;21.09;100.00
77227;BME280;66234;47.642;19.144;2023-08-17T00:36:03;100546.06;;;21.10;100.00
77227;BME280;66234;47.642;19.144;2023-08-17T00:39:07;100546.84;;;21.01;100.00
77227;BME280;66234;47.642;19.144;2023-08-17T00:42:10;100549.03;;;21.04;100.00
77227;BME280;66234;47.642;19.144;2023-08-17T00:45:12;100550.16;;;21.08;100.00
77227;BME280;66234;47.642;19.144;2023-08-17T00:48:16;100547.19;;;21.14;100.00
77227;BME280;66234;47.642;19.144;2023-08-17T00:51:18;100547.19;;;21.14;100.00
77227;BME280;66234;47.642;19.144;2023-08-17T00:54:27;100548.81;;;21.15;100.00
77227;BME280;66234;47.642;19.144;2023-08-17T00:57:29;100553.16;;;21.16;100.00
77227;BME280;66234;47.642;19.144;2023-08-17T01:00:32;100551.81;;;21.19;100.00
77227;BME280;66234;47.642;19.144;2023-08-17T01:03:35;100556.19;;;21.25;100.00
77227;BME280;66234;47.642;19.144;2023-08-17T01:06:38;100552.34;;;21.16;100.00
77227;BME280;66234;47.642;19.144;2023-08-17T01:09:42;100554.53;;;21.14;100.00
77227;BME280;66234;47.642;19.144;2023-08-17T01:13:11;100558.06;;;21.14;100.00
77227;BME280;66234;47.642;19.144;2023-08-17T01:16:21;100555.63;;;21.13;100.00
77227;BME280;66234;47.642;19.144;2023-08-17T01:19:27;100559.66;;;21.10;100.00
77227;BME280;66234;47.642;19.144;2023-08-17T01:22:30;100563.75;;;21.18;100.00
77227;BME280;66234;47.642;19.144;2023-08-17T01:25:35;100571.94;;;21.28;100.00
77227;BME280;66234;47.642;19.144;2023-08-17T01:28:45;100572.22;;;21.27;100.00
77227;BME280;66234;47.642;19.144;2023-08-17T01:32:04;100575.47;;;21.18;100.00
77227;BME280;66234;47.642;19.144;2023-08-17T01:35:46;100574.66;;;21.23;100.00
77227;BME280;66234;47.642;19.144;2023-08-17T01:38:54;100567.06;;;21.25;100.00
77227;BME280;66234;47.642;19.144;2023-08-17T01:41:59;100571.66;;;21.19;100.00
77227;BME280;66234;47.642;19.144;2023-08-17T01:45:02;100569.25;;;21.28;100.00
77227;BME280;66234;47.642;19.144;2023-08-17T01:48:05;100563.53;;;21.30;98.06
77227;BME280;66234;47.642;19.144;2023-08-17T01:51:11;100561.91;;;21.29;98.93
77227;BME280;66234;47.642;19.144;2023-08-17T01:54:14;100556.44;;;21.34;99.72
77227;BME280;66234;47.642;19.144;2023-08-17T01:57:17;100552.09;;;21.28;100.00
77227;BME280;66234;47.642;19.144;2023-08-17T02:00:19;100558.91;;;21.25;98.68
77227;BME280;66234;47.642;19.144;2023-08-17T02:03:22;100549.66;;;21.31;98.08
77227;BME280;66234;47.642;19.144;2023-08-17T02:06:24;100553.47;;;21.30;97.79
77227;BME280;66234;47.642;19.144;2023-08-17T02:09:27;100545.03;;;21.27;100.00
77227;BME280;66234;47.642;19.144;2023-08-17T02:12:29;100545.00;;;21.16;100.00
77227;BME280;66234;47.642;19.144;2023-08-17T02:15:32;100545.81;;;21.17;100.00
77227;BME280;66234;47.642;19.144;2023-08-17T02:18:35;100547.72;;;21.16;100.00
77227;BME280;66234;47.642;19.144;2023-08-17T02:21:37;100547.16;;;21.09;100.00
77227;BME280;66234;47.642;19.144;2023-08-17T02:24:40;100544.19;;;21.11;100.00
77227;BME280;66234;47.642;19.144;2023-08-17T02:27:43;100551.25;;;21.17;100.00
77227;BME280;66234;47.642;19.144;2023-08-17T02:30:46;100551.00;;;21.18;99.73
77227;BME280;66234;47.642;19.144;2023-08-17T02:33:49;100545.81;;;21.17;99.53
77227;BME280;66234;47.642;19.144;2023-08-17T02:36:52;100556.16;;;21.20;100.00
77227;BME280;66234;47.642;19.144;2023-08-17T02:39:54;100552.09;;;21.17;100.00
77227;BME280;66234;47.642;19.144;2023-08-17T02:42:57;100568.38;;;21.12;99.69
77227;BME280;66234;47.642;19.144;2023-08-17T02:45:59;100564.53;;;21.08;100.00
77227;BME280;66234;47.642;19.144;2023-08-17T02:49:02;100561.31;;;21.06;100.00
77227;BME280;66234;47.642;19.144;2023-08-17T02:52:05;100565.91;;;21.06;100.00
77227;BME280;66234;47.642;19.144;2023-08-17T02:55:07;100558.03;;;21.04;100.00
77227;BME280;66234;47.642;19.144;2023-08-17T02:58:10;100557.47;;;20.97;100.00
77227;BME280;66234;47.642;19.144;2023-08-17T03:01:13;100555.50;;;20.88;100.00
77227;BME280;66234;47.642;19.144;2023-08-17T03:04:16;100547.91;;;20.95;100.00
77227;BME280;66234;47.642;19.144;2023-08-17T03:07:19;100528.84;;;20.90;100.00
77227;BME280;66234;47.642;19.144;2023-08-17T03:10:21;100531.06;;;20.93;100.00
77227;BME280;66234;47.642;19.144;2023-08-17T03:13:25;100539.53;;;21.01;100.00
77227;BME280;66234;47.642;19.144;2023-08-17T03:16:27;100537.38;;;21.03;100.00
77227;BME280;66234;47.642;19.144;2023-08-17T03:19:34;100537.63;;;20.97;100.00
77227;BME280;66234;47.642;19.144;2023-08-17T03:22:37;100542.25;;;21.01;100.00
77227;BME280;66234;47.642;19.144;2023-08-17T03:25:39;100537.28;;;20.88;100.00
77227;BME280;66234;47.642;19.144;2023-08-17T03:28:42;100545.19;;;20.95;100.00
77227;BME280;66234;47.642;19.144;2023-08-17T03:31:45;100542.72;;;20.88;100.00
77227;BME280;66234;47.642;19.144;2023-08-17T03:34:48;100548.66;;;20.75;100.00
77227;BME280;66234;47.642;19.144;2023-08-17T03:37:51;100542.69;;;20.78;100.00
77227;BME280;66234;47.642;19.144;2023-08-17T03:40:54;100533.19;;;20.86;100.00
77227;BME280;66234;47.642;19.144;2023-08-17T03:43:58;100531.03;;;20.88;100.00
77227;BME280;66234;47.642;19.144;2023-08-17T03:47:00;100531.84;;;20.83;100.00
77227;BME280;66234;47.642;19.144;2023-08-17T03:50:03;100532.41;;;20.90;100.00
77227;BME280;66234;47.642;19.144;2023-08-17T03:53:06;100546.53;;;20.92;100.00
77227;BME280;66234;47.642;19.144;2023-08-17T03:56:09;100549.78;;;20.84;100.00
77227;BME280;66234;47.642;19.144;2023-08-17T03:59:11;100545.38;;;20.73;100.00
77227;BME280;66234;47.642;19.144;2023-08-17T04:02:14;100544.84;;;20.76;100.00
77227;BME280;66234;47.642;19.144;2023-08-17T04:05:16;100543.50;;;20.84;100.00
77227;BME280;66234;47.642;19.144;2023-08-17T04:08:19;100545.44;;;20.88;100.00
77227;BME280;66234;47.642;19.144;2023-08-17T04:11:21;100542.97;;;20.82;100.00
77227;BME280;66234;47.642;19.144;2023-08-17T04:14:25;100557.38;;;20.82;100.00
77227;BME280;66234;47.642;19.144;2023-08-17T04:17:29;100548.94;;;20.79;100.00
77227;BME280;66234;47.642;19.144;2023-08-17T04:20:32;100547.06;;;20.84;100.00
77227;BME280;66234;47.642;19.144;2023-08-17T04:23:35;100542.44;;;20.90;100.00
77227;BME280;66234;47.642;19.144;2023-08-17T04:26:37;100549.59;;;20.96;100.00
77227;BME280;66234;47.642;19.144;2023-08-17T04:29:41;100557.47;;;21.02;100.00
77227;BME280;66234;47.642;19.144;2023-08-17T04:32:43;100560.19;;;21.02;100.00
77227;BME280;66234;47.642;19.144;2023-08-17T04:35:47;100558.59;;;21.06;100.00
77227;BME280;66234;47.642;19.144;2023-08-17T04:38:52;100567.81;;;21.10;100.00
77227;BME280;66234;47.642;19.144;2023-08-17T04:41:55;100573.25;;;21.10;100.00
77227;BME280;66234;47.642;19.144;2023-08-17T04:45:03;100568.94;;;21.14;100.00
77227;BME280;66234;47.642;19.144;2023-08-17T04:48:07;100578.75;;;21.21;100.00
77227;BME280;66234;47.642;19.144;2023-08-17T04:51:10;100571.09;;;21.23;100.00
77227;BME280;66234;47.642;19.144;2023-08-17T04:54:12;100567.31;;;21.24;100.00
77227;BME280;66234;47.642;19.144;2023-08-17T04:57:15;100567.88;;;21.21;100.00
77227;BME280;66234;47.642;19.144;2023-08-17T05:00:17;100571.94;;;21.23;100.00
77227;BME280;66234;47.642;19.144;2023-08-17T05:03:22;100571.69;;;21.30;100.00
77227;BME280;66234;47.642;19.144;2023-08-17T05:06:35;100570.31;;;21.32;100.00
77227;BME280;66234;47.642;19.144;2023-08-17T05:09:39;100579.84;;;21.40;100.00
77227;BME280;66234;47.642;19.144;2023-08-17T05:12:42;100571.16;;;21.48;100.00
77227;BME280;66234;47.642;19.144;2023-08-17T05:15:45;100566.53;;;21.63;99.07
77227;BME280;66234;47.642;19.144;2023-08-17T05:18:49;100580.44;;;21.77;98.91
77227;BME280;66234;47.642;19.144;2023-08-17T05:21:52;100572.56;;;21.95;97.02
77227;BME280;66234;47.642;19.144;2023-08-17T05:24:56;100570.09;;;22.04;97.04
77227;BME280;66234;47.642;19.144;2023-08-17T05:27:59;100580.19;;;22.13;96.09
77227;BME280;66234;47.642;19.144;2023-08-17T05:31:08;100577.97;;;22.30;94.24
77227;BME280;66234;47.642;19.144;2023-08-17T05:34:14;100576.03;;;22.36;94.63
77227;BME280;66234;47.642;19.144;2023-08-17T05:37:17;100574.13;;;22.41;94.99
77227;BME280;66234;47.642;19.144;2023-08-17T05:40:20;100579.00;;;22.49;95.52
77227;BME280;66234;47.642;19.144;2023-08-17T05:43:23;100586.91;;;22.46;95.07
77227;BME280;66234;47.642;19.144;2023-08-17T05:46:26;100579.88;;;22.35;96.14
77227;BME280;66234;47.642;19.144;2023-08-17T05:49:28;100580.69;;;22.25;94.81
77227;BME280;66234;47.642;19.144;2023-08-17T05:52:31;100579.03;;;22.34;95.04
77227;BME280;66234;47.642;19.144;2023-08-17T05:55:34;100585.28;;;22.45;95.47
77227;BME280;66234;47.642;19.144;2023-08-17T05:58:36;100581.72;;;22.49;94.80
77227;BME280;66234;47.642;19.144;2023-08-17T06:01:39;100579.00;;;22.64;92.94
77227;BME280;66234;47.642;19.144;2023-08-17T06:04:42;100584.38;;;22.85;90.39
77227;BME280;66234;47.642;19.144;2023-08-17T06:07:44;100582.69;;;22.89;90.00
77227;BME280;66234;47.642;19.144;2023-08-17T06:10:47;100572.31;;;22.96;90.05
77227;BME280;66234;47.642;19.144;2023-08-17T06:13:49;100577.22;;;22.99;85.69
77227;BME280;66234;47.642;19.144;2023-08-17T06:16:52;100572.28;;;23.01;85.53
77227;BME280;66234;47.642;19.144;2023-08-17T06:19:54;100564.88;;;23.06;86.57
77227;BME280;66234;47.642;19.144;2023-08-17T06:22:57;100565.09;;;23.15;85.58
77227;BME280;66234;47.642;19.144;2023-08-17T06:26:02;100569.44;;;23.26;85.87
77227;BME280;66234;47.642;19.144;2023-08-17T06:29:05;100558.78;;;23.24;86.12
77227;BME280;66234;47.642;19.144;2023-08-17T06:32:08;100562.56;;;23.33;85.71
77227;BME280;66234;47.642;19.144;2023-08-17T06:35:10;100565.31;;;23.28;86.51
77227;BME280;66234;47.642;19.144;2023-08-17T06:38:13;100558.22;;;23.32;85.76
77227;BME280;66234;47.642;19.144;2023-08-17T06:41:16;100554.44;;;23.23;86.48
77227;BME280;66234;47.642;19.144;2023-08-17T06:44:19;100553.63;;;23.18;86.89
77227;BME280;66234;47.642;19.144;2023-08-17T06:47:22;100554.19;;;23.15;87.78
77227;BME280;66234;47.642;19.144;2023-08-17T06:50:25;100548.72;;;23.20;86.15
77227;BME280;66234;47.642;19.144;2023-08-17T06:53:28;100552.53;;;23.19;86.29
77227;BME280;66234;47.642;19.144;2023-08-17T06:56:31;100558.22;;;23.32;87.23
77227;BME280;66234;47.642;19.144;2023-08-17T06:59:34;100556.59;;;23.65;84.34
77227;BME280;66234;47.642;19.144;2023-08-17T07:02:36;100555.34;;;23.81;83.04
77227;BME280;66234;47.642;19.144;2023-08-17T07:05:53;100558.00;;;23.96;82.17
77227;BME280;66234;47.642;19.144;2023-08-17T07:08:56;100562.94;;;23.89;78.09
77227;BME280;66234;47.642;19.144;2023-08-17T07:11:58;100571.38;;;23.97;76.67
77227;BME280;66234;47.642;19.144;2023-08-17T07:15:01;100577.28;;;24.09;75.12
77227;BME280;66234;47.642;19.144;2023-08-17T07:18:04;100561.81;;;24.23;74.79
77227;BME280;66234;47.642;19.144;2023-08-17T07:21:06;100567.47;;;24.32;75.16
77227;BME280;66234;47.642;19.144;2023-08-17T07:24:13;100569.81;;;24.44;74.49
77227;BME280;66234;47.642;19.144;2023-08-17T07:27:16;100570.44;;;24.59;73.07
77227;BME280;66234;47.642;19.144;2023-08-17T07:30:19;100571.78;;;24.62;69.18
77227;BME280;66234;47.642;19.144;2023-08-17T07:33:21;100571.13;;;24.75;70.75
77227;BME280;66234;47.642;19.144;2023-08-17T07:36:24;100554.69;;;24.98;70.36
77227;BME280;66234;47.642;19.144;2023-08-17T07:39:28;100551.84;;;25.03;68.08
77227;BME280;66234;47.642;19.144;2023-08-17T07:42:30;100561.84;;;25.13;66.51
77227;BME280;66234;47.642;19.144;2023-08-17T07:45:33;100570.22;;;25.03;65.82
77227;BME280;66234;47.642;19.144;2023-08-17T07:48:35;100559.09;;;24.94;68.40
77227;BME280;66234;47.642;19.144;2023-08-17T07:51:38;100565.75;;;24.88;69.11
77227;BME280;66234;47.642;19.144;2023-08-17T07:54:41;100556.41;;;24.89;67.25
77227;BME280;66234;47.642;19.144;2023-08-17T07:57:43;100562.00;;;25.03;66.73
77227;BME280;66234;47.642;19.144;2023-08-17T08:00:46;100560.00;;;25.27;67.28
77227;BME280;66234;47.642;19.144;2023-08-17T08:03:48;100566.63;;;25.44;65.54
77227;BME280;66234;47.642;19.144;2023-08-17T08:06:51;100564.34;;;25.65;65.39
77227;BME280;66234;47.642;19.144;2023-08-17T08:09:53;100561.75;;;25.73;65.27
77227;BME280;66234;47.642;19.144;2023-08-17T08:12:57;100555.97;;;25.75;64.54
77227;BME280;66234;47.642;19.144;2023-08-17T08:15:59;100560.78;;;25.83;66.10
77227;BME280;66234;47.642;19.144;2023-08-17T08:19:02;100560.28;;;25.95;64.25
77227;BME280;66234;47.642;19.144;2023-08-17T08:22:04;100551.75;;;26.15;63.42
77227;BME280;66234;47.642;19.144;2023-08-17T08:25:07;100553.69;;;26.28;63.77
77227;BME280;66234;47.642;19.144;2023-08-17T08:28:10;100540.69;;;26.33;64.26
77227;BME280;66234;47.642;19.144;2023-08-17T08:31:12;100543.34;;;26.38;64.64
77227;BME280;66234;47.642;19.144;2023-08-17T08:34:15;100552.31;;;26.71;60.79
77227;BME280;66234;47.642;19.144;2023-08-17T08:37:17;100536.03;;;26.88;59.78
77227;BME280;66234;47.642;19.144;2023-08-17T08:40:24;100540.69;;;27.01;60.08
77227;BME280;66234;47.642;19.144;2023-08-17T08:43:29;100542.81;;;27.04;59.21
77227;BME280;66234;47.642;19.144;2023-08-17T08:46:33;100547.88;;;27.10;57.71
77227;BME280;66234;47.642;19.144;2023-08-17T08:49:39;100543.72;;;27.49;59.85
77227;BME280;66234;47.642;19.144;2023-08-17T08:52:50;100550.59;;;27.60;58.77
77227;BME280;66234;47.642;19.144;2023-08-17T08:55:58;100546.31;;;27.76;57.22
77227;BME280;66234;47.642;19.144;2023-08-17T08:59:02;100550.56;;;28.04;53.92
77227;BME280;66234;47.642;19.144;2023-08-17T09:02:05;100552.38;;;28.08;53.90
77227;BME280;66234;47.642;19.144;2023-08-17T09:05:10;100547.91;;;28.12;54.54
77227;BME280;66234;47.642;19.144;2023-08-17T09:08:14;100540.69;;;28.25;54.71
77227;BME280;66234;47.642;19.144;2023-08-17T09:11:19;100539.66;;;28.21;51.83
77227;BME280;66234;47.642;19.144;2023-08-17T09:14:21;100533.97;;;28.17;53.50
77227;BME280;66234;47.642;19.144;2023-08-17T09:17:24;100537.59;;;28.26;53.25
77227;BME280;66234;47.642;19.144;2023-08-17T09:20:41;100533.22;;;27.95;53.49
77227;BME280;66234;47.642;19.144;2023-08-17T09:23:55;100527.84;;;27.90;52.58
77227;BME280;66234;47.642;19.144;2023-08-17T09:27:03;100525.72;;;27.65;54.33
77227;BME280;66234;47.642;19.144;2023-08-17T09:30:17;100528.63;;;27.60;53.86
77227;BME280;66234;47.642;19.144;2023-08-17T09:33:22;100511.59;;;28.02;54.13
77227;BME280;66234;47.642;19.144;2023-08-17T09:36:26;100518.72;;;27.81;52.63
77227;BME280;66234;47.642;19.144;2023-08-17T09:39:29;100517.81;;;28.16;52.85
77227;BME280;66234;47.642;19.144;2023-08-17T09:42:35;100505.56;;;28.30;51.20
77227;BME280;66234;47.642;19.144;2023-08-17T09:45:37;100503.34;;;28.41;50.33
77227;BME280;66234;47.642;19.144;2023-08-17T09:48:43;100506.91;;;28.80;50.41
77227;BME280;66234;47.642;19.144;2023-08-17T09:51:47;100503.28;;;28.71;49.79
77227;BME280;66234;47.642;19.144;2023-08-17T09:54:52;100501.81;;;28.65;50.51
77227;BME280;66234;47.642;19.144;2023-08-17T09:57:54;100497.44;;;28.56;50.95
77227;BME280;66234;47.642;19.144;2023-08-17T10:00:58;100495.06;;;28.80;49.81
77227;BME280;66234;47.642;19.144;2023-08-17T10:04:05;100496.41;;;29.17;49.56
77227;BME280;66234;47.642;19.144;2023-08-17T10:07:08;100495.75;;;29.20;50.96
77227;BME280;66234;47.642;19.144;2023-08-17T10:10:13;100488.97;;;29.34;52.46
77227;BME280;66234;47.642;19.144;2023-08-17T10:16:29;100492.50;;;29.43;50.36
77227;BME280;66234;47.642;19.144;2023-08-17T10:19:37;100490.25;;;29.37;50.11
77227;BME280;66234;47.642;19.144;2023-08-17T10:22:51;100491.66;;;29.60;49.57
77227;BME280;66234;47.642;19.144;2023-08-17T10:25:55;100494.13;;;29.53;49.45
77227;BME280;66234;47.642;19.144;2023-08-17T10:28:59;100486.84;;;29.23;47.58
77227;BME280;66234;47.642;19.144;2023-08-17T10:32:15;100493.66;;;29.34;46.68
77227;BME280;66234;47.642;19.144;2023-08-17T10:35:18;100488.50;;;30.04;47.42
77227;BME280;66234;47.642;19.144;2023-08-17T10:38:21;100495.75;;;29.71;46.58
77227;BME280;66234;47.642;19.144;2023-08-17T10:41:24;100487.22;;;30.48;45.16
77227;BME280;66234;47.642;19.144;2023-08-17T10:47:44;100498.16;;;29.81;44.86
77227;BME280;66234;47.642;19.144;2023-08-17T10:51:00;100488.13;;;29.76;46.54
77227;BME280;66234;47.642;19.144;2023-08-17T10:54:03;100491.31;;;29.87;45.06
77227;BME280;66234;47.642;19.144;2023-08-17T11:00:38;100495.09;;;29.57;45.16
77227;BME280;66234;47.642;19.144;2023-08-17T11:03:41;100490.38;;;29.74;48.06
77227;BME280;66234;47.642;19.144;2023-08-17T11:06:44;100492.50;;;29.69;47.15
77227;BME280;66234;47.642;19.144;2023-08-17T11:09:47;100486.19;;;29.51;47.23
77227;BME280;66234;47.642;19.144;2023-08-17T11:12:53;100490.56;;;29.61;47.76
77227;BME280;66234;47.642;19.144;2023-08-17T11:15:59;100486.66;;;29.70;47.28
77227;BME280;66234;47.642;19.144;2023-08-17T11:19:06;100492.97;;;29.71;48.26
77227;BME280;66234;47.642;19.144;2023-08-17T11:22:15;100484.88;;;29.74;46.68
77227;BME280;66234;47.642;19.144;2023-08-17T11:25:21;100489.56;;;29.57;47.25
77227;BME280;66234;47.642;19.144;2023-08-17T11:28:24;100479.00;;;29.84;47.49
77227;BME280;66234;47.642;19.144;2023-08-17T11:31:26;100481.78;;;29.59;46.73
77227;BME280;66234;47.642;19.144;2023-08-17T11:34:29;100484.72;;;29.71;46.42
77227;BME280;66234;47.642;19.144;2023-08-17T11:37:32;100485.84;;;29.70;46.32
77227;BME280;66234;47.642;19.144;2023-08-17T11:40:35;100483.28;;;29.39;47.10
77227;BME280;66234;47.642;19.144;2023-08-17T11:43:38;100486.47;;;29.84;47.90
77227;BME280;66234;47.642;19.144;2023-08-17T11:46:41;100485.47;;;29.88;46.92
77227;BME280;66234;47.642;19.144;2023-08-17T11:49:47;100484.13;;;30.49;45.44
77227;BME280;66234;47.642;19.144;2023-08-17T11:52:50;100482.25;;;30.32;45.95
77227;BME280;66234;47.642;19.144;2023-08-17T11:55:53;100480.56;;;30.02;46.51
77227;BME280;66234;47.642;19.144;2023-08-17T11:58:58;100483.34;;;30.40;45.75
77227;BME280;66234;47.642;19.144;2023-08-17T12:02:01;100479.44;;;30.41;46.02
77227;BME280;66234;47.642;19.144;2023-08-17T12:05:04;100471.41;;;31.06;46.28
77227;BME280;66234;47.642;19.144;2023-08-17T12:08:08;100457.25;;;30.87;44.28
77227;BME280;66234;47.642;19.144;2023-08-17T12:11:11;100468.69;;;30.48;45.16
77227;BME280;66234;47.642;19.144;2023-08-17T12:14:14;100460.09;;;31.52;44.11
77227;BME280;66234;47.642;19.144;2023-08-17T12:17:20;100458.16;;;32.10;42.61
77227;BME280;66234;47.642;19.144;2023-08-17T12:20:23;100454.22;;;32.95;39.94
77227;BME280;66234;47.642;19.144;2023-08-17T12:23:26;100456.53;;;32.81;40.50
77227;BME280;66234;47.642;19.144;2023-08-17T12:26:28;100451.78;;;32.93;40.35
77227;BME280;66234;47.642;19.144;2023-08-17T12:29:32;100448.09;;;33.57;39.22
77227;BME280;66234;47.642;19.144;2023-08-17T12:32:34;100449.75;;;33.46;40.11
77227;BME280;66234;47.642;19.144;2023-08-17T12:35:37;100449.63;;;32.63;41.32
77227;BME280;66234;47.642;19.144;2023-08-17T12:38:40;100446.41;;;33.68;39.91
77227;BME280;66234;47.642;19.144;2023-08-17T12:41:47;100435.38;;;33.28;40.29
77227;BME280;66234;47.642;19.144;2023-08-17T12:44:50;100430.19;;;32.99;41.70
77227;BME280;66234;47.642;19.144;2023-08-17T12:47:52;100425.75;;;34.43;38.26
77227;BME280;66234;47.642;19.144;2023-08-17T12:50:55;100421.81;;;34.98;37.81
77227;BME280;66234;47.642;19.144;2023-08-17T12:53:58;100416.41;;;35.24;38.17
77227;BME280;66234;47.642;19.144;2023-08-17T12:57:01;100418.34;;;36.06;35.67
77227;BME280;66234;47.642;19.144;2023-08-17T13:00:09;100407.59;;;36.83;33.77
77227;BME280;66234;47.642;19.144;2023-08-17T13:03:12;100412.19;;;36.72;34.28
77227;BME280;66234;47.642;19.144;2023-08-17T13:06:17;100412.34;;;36.83;33.46
77227;BME280;66234;47.642;19.144;2023-08-17T13:09:19;100402.84;;;36.87;33.88
77227;BME280;66234;47.642;19.144;2023-08-17T13:12:22;100404.19;;;35.47;34.61
77227;BME280;66234;47.642;19.144;2023-08-17T13:15:25;100399.63;;;33.82;37.76
77227;BME280;66234;47.642;19.144;2023-08-17T13:18:27;100396.91;;;34.16;37.26
77227;BME280;66234;47.642;19.144;2023-08-17T13:21:30;100395.28;;;34.65;35.92
77227;BME280;66234;47.642;19.144;2023-08-17T13:24:33;100390.75;;;34.76;37.14
77227;BME280;66234;47.642;19.144;2023-08-17T13:27:36;100383.94;;;34.55;36.41
77227;BME280;66234;47.642;19.144;2023-08-17T13:30:38;100393.03;;;34.71;36.92
77227;BME280;66234;47.642;19.144;2023-08-17T13:33:41;100399.06;;;33.76;39.18
77227;BME280;66234;47.642;19.144;2023-08-17T13:36:44;100400.13;;;33.87;38.34
77227;BME280;66234;47.642;19.144;2023-08-17T13:39:47;100388.91;;;34.30;38.16
77227;BME280;66234;47.642;19.144;2023-08-17T13:42:50;100400.19;;;34.53;36.85
77227;BME280;66234;47.642;19.144;2023-08-17T13:45:52;100396.94;;;35.43;35.46
77227;BME280;66234;47.642;19.144;2023-08-17T13:48:55;100391.06;;;36.15;34.25
77227;BME280;66234;47.642;19.144;2023-08-17T13:51:57;100381.59;;;37.42;31.38
77227;BME280;66234;47.642;19.144;2023-08-17T13:55:00;100396.53;;;37.60;31.81
77227;BME280;66234;47.642;19.144;2023-08-17T13:58:03;100386.81;;;36.77;33.14
77227;BME280;66234;47.642;19.144;2023-08-17T14:01:05;100387.22;;;36.01;32.80
77227;BME280;66234;47.642;19.144;2023-08-17T14:04:08;100396.44;;;34.30;36.83
77227;BME280;66234;47.642;19.144;2023-08-17T14:07:13;100403.16;;;31.39;43.55
77227;BME280;66234;47.642;19.144;2023-08-17T14:10:16;100404.22;;;30.73;46.84
77227;BME280;66234;47.642;19.144;2023-08-17T14:13:38;100401.63;;;30.27;47.16
77227;BME280;66234;47.642;19.144;2023-08-17T14:16:42;100401.38;;;30.03;46.46
77227;BME280;66234;47.642;19.144;2023-08-17T14:19:44;100398.97;;;30.01;48.22
77227;BME280;66234;47.642;19.144;2023-08-17T14:22:47;100402.34;;;30.07;48.25
77227;BME280;66234;47.642;19.144;2023-08-17T14:25:49;100400.84;;;30.18;47.44
77227;BME280;66234;47.642;19.144;2023-08-17T14:28:54;100392.16;;;30.36;46.26
77227;BME280;66234;47.642;19.144;2023-08-17T14:31:56;100401.47;;;30.23;46.79
77227;BME280;66234;47.642;19.144;2023-08-17T14:34:59;100384.53;;;30.83;44.46
77227;BME280;66234;47.642;19.144;2023-08-17T14:38:02;100393.78;;;30.58;45.68
77227;BME280;66234;47.642;19.144;2023-08-17T14:41:05;100388.66;;;30.27;47.27
77227;BME280;66234;47.642;19.144;2023-08-17T14:44:08;100394.50;;;30.17;48.33
77227;BME280;66234;47.642;19.144;2023-08-17T14:47:11;100394.31;;;29.93;49.26
77227;BME280;66234;47.642;19.144;2023-08-17T14:50:16;100401.47;;;29.31;51.66
77227;BME280;66234;47.642;19.144;2023-08-17T14:53:18;100385.06;;;28.41;52.47
77227;BME280;66234;47.642;19.144;2023-08-17T14:56:21;100385.16;;;28.10;54.00
77227;BME280;66234;47.642;19.144;2023-08-17T14:59:25;100381.53;;;27.93;54.41
77227;BME280;66234;47.642;19.144;2023-08-17T15:02:27;100393.28;;;28.15;54.47
77227;BME280;66234;47.642;19.144;2023-08-17T15:05:30;100390.31;;;29.11;52.50
77227;BME280;66234;47.642;19.144;2023-08-17T15:08:33;100385.47;;;28.65;54.02
77227;BME280;66234;47.642;19.144;2023-08-17T15:11:36;100384.16;;;28.06;55.50
77227;BME280;66234;47.642;19.144;2023-08-17T15:14:38;100372.75;;;27.82;56.50
77227;BME280;66234;47.642;19.144;2023-08-17T15:17:41;100384.28;;;27.54;56.88
77227;BME280;66234;47.642;19.144;2023-08-17T15:20:44;100387.06;;;27.31;57.94
77227;BME280;66234;47.642;19.144;2023-08-17T15:23:46;100376.91;;;27.18;58.78
77227;BME280;66234;47.642;19.144;2023-08-17T15:26:49;100383.09;;;27.02;59.59
77227;BME280;66234;47.642;19.144;2023-08-17T15:29:51;100378.47;;;26.89;59.46
77227;BME280;66234;47.642;19.144;2023-08-17T15:32:54;100382.44;;;26.96;59.39
77227;BME280;66234;47.642;19.144;2023-08-17T15:35:56;100363.03;;;26.93;59.79
77227;BME280;66234;47.642;19.144;2023-08-17T15:39:00;100364.00;;;26.97;59.80
77227;BME280;66234;47.642;19.144;2023-08-17T15:42:02;100373.50;;;26.91;60.67
77227;BME280;66234;47.642;19.144;2023-08-17T15:45:05;100375.78;;;26.75;61.95
77227;BME280;66234;47.642;19.144;2023-08-17T15:48:08;100386.84;;;26.48;64.36
77227;BME280;66234;47.642;19.144;2023-08-17T15:51:11;100377.94;;;26.02;67.82
77227;BME280;66234;47.642;19.144;2023-08-17T15:54:13;100385.63;;;25.59;71.06
77227;BME280;66234;47.642;19.144;2023-08-17T15:57:35;100384.88;;;25.40;72.24